sensor_id;sensor_type;location;lat;lon;timestamp;P1;durP1;ratioP1;P2;durP2;ratioP2
37907;SDS011;23740;51.550;6.846;2022-08-21T00:01:09;7.30;;;3.25;;
37907;SDS011;23740;51.550;6.846;2022-08-21T00:03:36;6.13;;;3.40;;
37907;SDS011;23740;51.550;6.846;2022-08-21T00:06:02;8.82;;;3.45;;
37907;SDS011;23740;51.550;6.846;2022-08-21T00:08:28;6.07;;;3.38;;
37907;SDS011;23740;51.550;6.846;2022-08-21T00:10:54;5.80;;;3.10;;
37907;SDS011;23740;51.550;6.846;2022-08-21T00:13:19;4.47;;;2.75;;
37907;SDS011;23740;51.550;6.846;2022-08-21T00:15:46;6.45;;;3.80;;
37907;SDS011;23740;51.550;6.846;2022-08-21T00:18:12;7.90;;;3.75;;
37907;SDS011;23740;51.550;6.846;2022-08-21T00:20:39;6.60;;;3.13;;
37907;SDS011;23740;51.550;6.846;2022-08-21T00:23:06;9.40;;;3.85;;
37907;SDS011;23740;51.550;6.846;2022-08-21T00:25:32;7.28;;;3.80;;
37907;SDS011;23740;51.550;6.846;2022-08-21T00:27:58;5.20;;;3.35;;
37907;SDS011;23740;51.550;6.846;2022-08-21T00:30:24;6.55;;;3.72;;
37907;SDS011;23740;51.550;6.846;2022-08-21T00:32:51;12.93;;;3.30;;
37907;SDS011;23740;51.550;6.846;2022-08-21T00:35:18;5.85;;;3.42;;
37907;SDS011;23740;51.550;6.846;2022-08-21T00:37:47;8.00;;;3.78;;
37907;SDS011;23740;51.550;6.846;2022-08-21T00:40:15;11.27;;;4.20;;
37907;SDS011;23740;51.550;6.846;2022-08-21T00:42:43;10.18;;;4.07;;
37907;SDS011;23740;51.550;6.846;2022-08-21T00:45:09;5.90;;;3.47;;
37907;SDS011;23740;51.550;6.846;2022-08-21T00:47:35;7.78;;;3.90;;
37907;SDS011;23740;51.550;6.846;2022-08-21T00:50:00;6.43;;;4.18;;
37907;SDS011;23740;51.550;6.846;2022-08-21T00:52:28;6.30;;;3.45;;
37907;SDS011;23740;51.550;6.846;2022-08-21T00:54:55;6.28;;;3.67;;
37907;SDS011;23740;51.550;6.846;2022-08-21T00:57:24;8.95;;;3.85;;
37907;SDS011;23740;51.550;6.846;2022-08-21T00:59:52;7.90;;;4.00;;
37907;SDS011;23740;51.550;6.846;2022-08-21T01:02:19;7.95;;;3.50;;
37907;SDS011;23740;51.550;6.846;2022-08-21T01:04:45;7.78;;;3.45;;
37907;SDS011;23740;51.550;6.846;2022-08-21T01:07:10;7.03;;;3.63;;
37907;SDS011;23740;51.550;6.846;2022-08-21T01:09:36;5.60;;;3.55;;
37907;SDS011;23740;51.550;6.846;2022-08-21T01:12:02;6.93;;;3.75;;
37907;SDS011;23740;51.550;6.846;2022-08-21T01:14:28;5.32;;;3.40;;
37907;SDS011;23740;51.550;6.846;2022-08-21T01:16:54;10.27;;;3.90;;
37907;SDS011;23740;51.550;6.846;2022-08-21T01:19:21;5.45;;;3.28;;
37907;SDS011;23740;51.550;6.846;2022-08-21T01:21:47;7.35;;;3.63;;
37907;SDS011;23740;51.550;6.846;2022-08-21T01:24:13;7.28;;;3.45;;
37907;SDS011;23740;51.550;6.846;2022-08-21T01:26:39;6.38;;;3.03;;
37907;SDS011;23740;51.550;6.846;2022-08-21T01:29:11;11.18;;;3.72;;
37907;SDS011;23740;51.550;6.846;2022-08-21T01:31:52;7.45;;;3.75;;
37907;SDS011;23740;51.550;6.846;2022-08-21T01:34:17;7.32;;;3.80;;
37907;SDS011;23740;51.550;6.846;2022-08-21T01:36:44;5.80;;;3.08;;
37907;SDS011;23740;51.550;6.846;2022-08-21T01:39:10;6.50;;;3.10;;
37907;SDS011;23740;51.550;6.846;2022-08-21T01:41:35;6.93;;;3.60;;
37907;SDS011;23740;51.550;6.846;2022-08-21T01:44:01;5.25;;;3.33;;
37907;SDS011;23740;51.550;6.846;2022-08-21T01:46:27;7.55;;;3.75;;
37907;SDS011;23740;51.550;6.846;2022-08-21T01:48:52;5.15;;;3.05;;
37907;SDS011;23740;51.550;6.846;2022-08-21T01:51:18;4.68;;;2.90;;
37907;SDS011;23740;51.550;6.846;2022-08-21T01:53:43;8.27;;;3.60;;
37907;SDS011;23740;51.550;6.846;2022-08-21T01:56:10;6.35;;;2.90;;
37907;SDS011;23740;51.550;6.846;2022-08-21T01:58:36;4.38;;;3.13;;
37907;SDS011;23740;51.550;6.846;2022-08-21T02:01:02;6.13;;;3.50;;
37907;SDS011;23740;51.550;6.846;2022-08-21T02:03:28;10.02;;;3.15;;
37907;SDS011;23740;51.550;6.846;2022-08-21T02:05:54;5.30;;;3.15;;
37907;SDS011;23740;51.550;6.846;2022-08-21T02:08:20;6.95;;;3.40;;
37907;SDS011;23740;51.550;6.846;2022-08-21T02:10:48;7.47;;;3.47;;
37907;SDS011;23740;51.550;6.846;2022-08-21T02:13:15;5.38;;;3.47;;
37907;SDS011;23740;51.550;6.846;2022-08-21T02:15:40;8.35;;;3.95;;
37907;SDS011;23740;51.550;6.846;2022-08-21T02:18:06;4.20;;;3.00;;
37907;SDS011;23740;51.550;6.846;2022-08-21T02:20:39;5.45;;;3.17;;
37907;SDS011;23740;51.550;6.846;2022-08-21T02:23:07;6.78;;;3.35;;
37907;SDS011;23740;51.550;6.846;2022-08-21T02:25:34;7.78;;;2.90;;
37907;SDS011;23740;51.550;6.846;2022-08-21T02:28:02;4.97;;;3.15;;
37907;SDS011;23740;51.550;6.846;2022-08-21T02:30:31;6.95;;;3.00;;
37907;SDS011;23740;51.550;6.846;2022-08-21T02:33:00;6.75;;;3.33;;
37907;SDS011;23740;51.550;6.846;2022-08-21T02:35:26;6.15;;;3.05;;
37907;SDS011;23740;51.550;6.846;2022-08-21T02:37:53;4.88;;;2.92;;
37907;SDS011;23740;51.550;6.846;2022-08-21T02:40:22;6.07;;;3.13;;
37907;SDS011;23740;51.550;6.846;2022-08-21T02:42:49;5.00;;;3.10;;
37907;SDS011;23740;51.550;6.846;2022-08-21T02:45:15;4.47;;;2.95;;
37907;SDS011;23740;51.550;6.846;2022-08-21T02:47:53;7.38;;;3.40;;
37907;SDS011;23740;51.550;6.846;2022-08-21T02:50:21;4.63;;;3.17;;
37907;SDS011;23740;51.550;6.846;2022-08-21T02:52:49;6.00;;;3.33;;
37907;SDS011;23740;51.550;6.846;2022-08-21T02:55:16;5.00;;;3.30;;
37907;SDS011;23740;51.550;6.846;2022-08-21T02:57:41;6.75;;;3.33;;
37907;SDS011;23740;51.550;6.846;2022-08-21T03:00:07;4.30;;;2.90;;
37907;SDS011;23740;51.550;6.846;2022-08-21T03:02:34;6.72;;;3.55;;
37907;SDS011;23740;51.550;6.846;2022-08-21T03:04:59;4.90;;;3.47;;
37907;SDS011;23740;51.550;6.846;2022-08-21T03:07:25;9.55;;;3.67;;
37907;SDS011;23740;51.550;6.846;2022-08-21T03:09:51;5.13;;;2.90;;
37907;SDS011;23740;51.550;6.846;2022-08-21T03:12:17;7.65;;;3.42;;
37907;SDS011;23740;51.550;6.846;2022-08-21T03:14:42;5.50;;;3.65;;
37907;SDS011;23740;51.550;6.846;2022-08-21T03:17:07;6.43;;;3.40;;
37907;SDS011;23740;51.550;6.846;2022-08-21T03:19:33;7.80;;;3.17;;
37907;SDS011;23740;51.550;6.846;2022-08-21T03:21:58;5.22;;;3.72;;
37907;SDS011;23740;51.550;6.846;2022-08-21T03:24:24;4.85;;;3.28;;
37907;SDS011;23740;51.550;6.846;2022-08-21T03:26:49;7.65;;;3.60;;
37907;SDS011;23740;51.550;6.846;2022-08-21T03:29:15;7.50;;;3.42;;
37907;SDS011;23740;51.550;6.846;2022-08-21T03:31:40;5.35;;;3.22;;
37907;SDS011;23740;51.550;6.846;2022-08-21T03:34:06;5.90;;;3.38;;
37907;SDS011;23740;51.550;6.846;2022-08-21T03:36:31;6.63;;;3.63;;
37907;SDS011;23740;51.550;6.846;2022-08-21T03:38:56;5.97;;;4.00;;
37907;SDS011;23740;51.550;6.846;2022-08-21T03:41:22;6.30;;;3.33;;
37907;SDS011;23740;51.550;6.846;2022-08-21T03:43:48;8.55;;;3.92;;
37907;SDS011;23740;51.550;6.846;2022-08-21T03:46:13;8.73;;;3.97;;
37907;SDS011;23740;51.550;6.846;2022-08-21T03:48:39;7.93;;;4.22;;
37907;SDS011;23740;51.550;6.846;2022-08-21T03:51:05;7.22;;;3.80;;
37907;SDS011;23740;51.550;6.846;2022-08-21T03:53:31;9.05;;;4.65;;
37907;SDS011;23740;51.550;6.846;2022-08-21T03:55:56;7.40;;;4.18;;
37907;SDS011;23740;51.550;6.846;2022-08-21T03:58:24;9.20;;;4.38;;
37907;SDS011;23740;51.550;6.846;2022-08-21T04:00:52;7.57;;;4.55;;
37907;SDS011;23740;51.550;6.846;2022-08-21T04:03:21;10.57;;;5.43;;
37907;SDS011;23740;51.550;6.846;2022-08-21T04:05:47;10.68;;;6.43;;
37907;SDS011;23740;51.550;6.846;2022-08-21T04:08:12;11.05;;;6.40;;
37907;SDS011;23740;51.550;6.846;2022-08-21T04:10:39;11.43;;;6.68;;
37907;SDS011;23740;51.550;6.846;2022-08-21T04:13:06;13.98;;;7.35;;
37907;SDS011;23740;51.550;6.846;2022-08-21T04:15:32;8.43;;;6.35;;
37907;SDS011;23740;51.550;6.846;2022-08-21T04:17:58;10.88;;;6.88;;
37907;SDS011;23740;51.550;6.846;2022-08-21T04:20:24;14.77;;;6.68;;
37907;SDS011;23740;51.550;6.846;2022-08-21T04:22:50;12.95;;;7.30;;
37907;SDS011;23740;51.550;6.846;2022-08-21T04:25:16;12.82;;;6.75;;
37907;SDS011;23740;51.550;6.846;2022-08-21T04:27:43;10.00;;;6.95;;
37907;SDS011;23740;51.550;6.846;2022-08-21T04:30:11;11.77;;;7.60;;
37907;SDS011;23740;51.550;6.846;2022-08-21T04:32:38;15.52;;;8.07;;
37907;SDS011;23740;51.550;6.846;2022-08-21T04:35:05;13.88;;;7.75;;
37907;SDS011;23740;51.550;6.846;2022-08-21T04:37:33;8.80;;;6.65;;
37907;SDS011;23740;51.550;6.846;2022-08-21T04:39:59;16.38;;;7.78;;
37907;SDS011;23740;51.550;6.846;2022-08-21T04:42:25;15.27;;;8.15;;
37907;SDS011;23740;51.550;6.846;2022-08-21T04:44:51;18.25;;;7.63;;
37907;SDS011;23740;51.550;6.846;2022-08-21T04:47:17;12.65;;;7.65;;
37907;SDS011;23740;51.550;6.846;2022-08-21T04:49:43;10.63;;;7.78;;
37907;SDS011;23740;51.550;6.846;2022-08-21T04:52:09;14.70;;;7.72;;
37907;SDS011;23740;51.550;6.846;2022-08-21T04:54:34;10.82;;;7.63;;
37907;SDS011;23740;51.550;6.846;2022-08-21T04:57:01;13.63;;;7.45;;
37907;SDS011;23740;51.550;6.846;2022-08-21T04:59:35;14.93;;;8.80;;
37907;SDS011;23740;51.550;6.846;2022-08-21T05:02:07;13.52;;;7.85;;
37907;SDS011;23740;51.550;6.846;2022-08-21T05:04:34;12.73;;;7.75;;
37907;SDS011;23740;51.550;6.846;2022-08-21T05:07:04;15.63;;;7.90;;
37907;SDS011;23740;51.550;6.846;2022-08-21T05:09:31;12.32;;;8.32;;
37907;SDS011;23740;51.550;6.846;2022-08-21T05:11:57;13.25;;;8.27;;
37907;SDS011;23740;51.550;6.846;2022-08-21T05:14:23;15.85;;;8.20;;
37907;SDS011;23740;51.550;6.846;2022-08-21T05:16:50;13.57;;;8.75;;
37907;SDS011;23740;51.550;6.846;2022-08-21T05:19:15;14.90;;;9.23;;
37907;SDS011;23740;51.550;6.846;2022-08-21T05:21:42;12.93;;;8.05;;
37907;SDS011;23740;51.550;6.846;2022-08-21T05:24:08;14.98;;;8.23;;
37907;SDS011;23740;51.550;6.846;2022-08-21T05:26:34;12.35;;;8.40;;
37907;SDS011;23740;51.550;6.846;2022-08-21T05:29:01;13.38;;;7.50;;
37907;SDS011;23740;51.550;6.846;2022-08-21T05:31:27;14.32;;;8.43;;
37907;SDS011;23740;51.550;6.846;2022-08-21T05:33:53;13.80;;;8.52;;
37907;SDS011;23740;51.550;6.846;2022-08-21T05:36:18;12.85;;;7.72;;
37907;SDS011;23740;51.550;6.846;2022-08-21T05:38:44;15.70;;;8.10;;
37907;SDS011;23740;51.550;6.846;2022-08-21T05:41:09;12.68;;;7.85;;
37907;SDS011;23740;51.550;6.846;2022-08-21T05:43:35;14.70;;;8.48;;
37907;SDS011;23740;51.550;6.846;2022-08-21T05:46:05;15.32;;;8.63;;
37907;SDS011;23740;51.550;6.846;2022-08-21T05:48:31;14.15;;;9.02;;
37907;SDS011;23740;51.550;6.846;2022-08-21T05:50:57;14.00;;;8.88;;
37907;SDS011;23740;51.550;6.846;2022-08-21T05:53:23;13.43;;;8.43;;
37907;SDS011;23740;51.550;6.846;2022-08-21T05:55:49;14.50;;;8.00;;
37907;SDS011;23740;51.550;6.846;2022-08-21T05:58:16;15.95;;;9.77;;
37907;SDS011;23740;51.550;6.846;2022-08-21T06:00:44;14.68;;;8.30;;
37907;SDS011;23740;51.550;6.846;2022-08-21T06:03:22;12.02;;;8.40;;
37907;SDS011;23740;51.550;6.846;2022-08-21T06:05:50;15.35;;;8.80;;
37907;SDS011;23740;51.550;6.846;2022-08-21T06:08:16;15.55;;;9.75;;
37907;SDS011;23740;51.550;6.846;2022-08-21T06:10:42;13.18;;;8.18;;
37907;SDS011;23740;51.550;6.846;2022-08-21T06:13:08;19.20;;;9.77;;
37907;SDS011;23740;51.550;6.846;2022-08-21T06:15:34;14.82;;;8.25;;
37907;SDS011;23740;51.550;6.846;2022-08-21T06:18:00;15.10;;;8.82;;
37907;SDS011;23740;51.550;6.846;2022-08-21T06:20:25;13.95;;;8.57;;
37907;SDS011;23740;51.550;6.846;2022-08-21T06:22:51;12.82;;;7.78;;
37907;SDS011;23740;51.550;6.846;2022-08-21T06:25:16;12.98;;;7.70;;
37907;SDS011;23740;51.550;6.846;2022-08-21T06:27:42;15.40;;;8.82;;
37907;SDS011;23740;51.550;6.846;2022-08-21T06:30:08;13.98;;;7.97;;
37907;SDS011;23740;51.550;6.846;2022-08-21T06:32:34;12.43;;;8.18;;
37907;SDS011;23740;51.550;6.846;2022-08-21T06:35:00;12.50;;;8.20;;
37907;SDS011;23740;51.550;6.846;2022-08-21T06:37:25;14.02;;;8.18;;
37907;SDS011;23740;51.550;6.846;2022-08-21T06:39:51;18.58;;;10.98;;
37907;SDS011;23740;51.550;6.846;2022-08-21T06:42:17;17.20;;;8.73;;
37907;SDS011;23740;51.550;6.846;2022-08-21T06:44:42;13.82;;;8.18;;
37907;SDS011;23740;51.550;6.846;2022-08-21T06:47:08;12.13;;;7.50;;
37907;SDS011;23740;51.550;6.846;2022-08-21T06:49:34;14.50;;;8.50;;
37907;SDS011;23740;51.550;6.846;2022-08-21T06:51:59;12.43;;;8.77;;
37907;SDS011;23740;51.550;6.846;2022-08-21T06:54:25;13.50;;;7.75;;
37907;SDS011;23740;51.550;6.846;2022-08-21T06:56:51;14.45;;;7.93;;
37907;SDS011;23740;51.550;6.846;2022-08-21T06:59:16;11.00;;;7.32;;
37907;SDS011;23740;51.550;6.846;2022-08-21T07:01:42;15.60;;;7.80;;
37907;SDS011;23740;51.550;6.846;2022-08-21T07:04:07;13.73;;;7.63;;
37907;SDS011;23740;51.550;6.846;2022-08-21T07:06:32;10.93;;;6.50;;
37907;SDS011;23740;51.550;6.846;2022-08-21T07:08:58;12.82;;;6.18;;
37907;SDS011;23740;51.550;6.846;2022-08-21T07:11:24;10.65;;;5.28;;
37907;SDS011;23740;51.550;6.846;2022-08-21T07:13:50;10.48;;;5.78;;
37907;SDS011;23740;51.550;6.846;2022-08-21T07:16:17;10.40;;;5.35;;
37907;SDS011;23740;51.550;6.846;2022-08-21T07:18:44;9.50;;;5.07;;
37907;SDS011;23740;51.550;6.846;2022-08-21T07:21:09;12.38;;;4.63;;
37907;SDS011;23740;51.550;6.846;2022-08-21T07:23:37;11.38;;;5.22;;
37907;SDS011;23740;51.550;6.846;2022-08-21T07:26:05;13.32;;;5.55;;
37907;SDS011;23740;51.550;6.846;2022-08-21T07:28:31;9.73;;;4.78;;
37907;SDS011;23740;51.550;6.846;2022-08-21T07:30:57;9.88;;;4.88;;
37907;SDS011;23740;51.550;6.846;2022-08-21T07:33:24;8.77;;;4.28;;
37907;SDS011;23740;51.550;6.846;2022-08-21T07:35:50;11.30;;;4.43;;
37907;SDS011;23740;51.550;6.846;2022-08-21T07:38:16;10.55;;;4.70;;
37907;SDS011;23740;51.550;6.846;2022-08-21T07:40:41;14.02;;;5.22;;
37907;SDS011;23740;51.550;6.846;2022-08-21T07:43:07;12.07;;;4.80;;
37907;SDS011;23740;51.550;6.846;2022-08-21T07:45:33;10.30;;;3.35;;
37907;SDS011;23740;51.550;6.846;2022-08-21T07:47:58;8.88;;;3.10;;
37907;SDS011;23740;51.550;6.846;2022-08-21T07:50:24;12.95;;;3.83;;
37907;SDS011;23740;51.550;6.846;2022-08-21T07:52:50;13.80;;;4.30;;
37907;SDS011;23740;51.550;6.846;2022-08-21T07:55:17;13.05;;;4.75;;
37907;SDS011;23740;51.550;6.846;2022-08-21T07:57:44;4.93;;;2.88;;
37907;SDS011;23740;51.550;6.846;2022-08-21T08:00:12;8.63;;;3.08;;
37907;SDS011;23740;51.550;6.846;2022-08-21T08:02:40;8.68;;;2.85;;
37907;SDS011;23740;51.550;6.846;2022-08-21T08:05:09;7.82;;;2.38;;
37907;SDS011;23740;51.550;6.846;2022-08-21T08:07:36;5.72;;;2.47;;
37907;SDS011;23740;51.550;6.846;2022-08-21T08:10:02;7.38;;;2.67;;
37907;SDS011;23740;51.550;6.846;2022-08-21T08:12:28;5.85;;;2.75;;
37907;SDS011;23740;51.550;6.846;2022-08-21T08:15:00;7.07;;;2.90;;
37907;SDS011;23740;51.550;6.846;2022-08-21T08:17:26;9.10;;;3.22;;
37907;SDS011;23740;51.550;6.846;2022-08-21T08:19:52;5.82;;;2.60;;
37907;SDS011;23740;51.550;6.846;2022-08-21T08:22:19;14.52;;;4.85;;
37907;SDS011;23740;51.550;6.846;2022-08-21T08:24:48;11.35;;;3.47;;
37907;SDS011;23740;51.550;6.846;2022-08-21T08:27:14;6.35;;;2.47;;
37907;SDS011;23740;51.550;6.846;2022-08-21T08:29:41;5.88;;;1.80;;
37907;SDS011;23740;51.550;6.846;2022-08-21T08:32:07;6.88;;;2.33;;
37907;SDS011;23740;51.550;6.846;2022-08-21T08:34:33;4.47;;;2.17;;
37907;SDS011;23740;51.550;6.846;2022-08-21T08:36:59;7.22;;;3.17;;
37907;SDS011;23740;51.550;6.846;2022-08-21T08:39:25;7.55;;;2.33;;
37907;SDS011;23740;51.550;6.846;2022-08-21T08:42:05;8.23;;;2.75;;
37907;SDS011;23740;51.550;6.846;2022-08-21T08:44:34;7.35;;;2.72;;
37907;SDS011;23740;51.550;6.846;2022-08-21T08:47:00;7.53;;;2.40;;
37907;SDS011;23740;51.550;6.846;2022-08-21T08:52:29;6.88;;;2.10;;
37907;SDS011;23740;51.550;6.846;2022-08-21T08:55:08;6.53;;;2.88;;
37907;SDS011;23740;51.550;6.846;2022-08-21T08:57:37;4.68;;;2.30;;
37907;SDS011;23740;51.550;6.846;2022-08-21T09:00:07;5.97;;;2.03;;
37907;SDS011;23740;51.550;6.846;2022-08-21T09:02:40;5.65;;;2.38;;
37907;SDS011;23740;51.550;6.846;2022-08-21T09:05:07;9.18;;;3.05;;
37907;SDS011;23740;51.550;6.846;2022-08-21T09:07:46;8.98;;;2.42;;
37907;SDS011;23740;51.550;6.846;2022-08-21T09:13:15;4.95;;;1.95;;
37907;SDS011;23740;51.550;6.846;2022-08-21T09:26:58;8.97;;;2.33;;
37907;SDS011;23740;51.550;6.846;2022-08-21T09:29:37;8.40;;;2.78;;
37907;SDS011;23740;51.550;6.846;2022-08-21T09:32:09;4.53;;;2.17;;
37907;SDS011;23740;51.550;6.846;2022-08-21T09:37:19;9.00;;;2.67;;
37907;SDS011;23740;51.550;6.846;2022-08-21T09:39:45;4.57;;;2.20;;
37907;SDS011;23740;51.550;6.846;2022-08-21T09:42:10;5.97;;;2.20;;
37907;SDS011;23740;51.550;6.846;2022-08-21T09:44:40;8.30;;;2.40;;
37907;SDS011;23740;51.550;6.846;2022-08-21T09:47:09;9.80;;;2.40;;
37907;SDS011;23740;51.550;6.846;2022-08-21T09:49:38;8.30;;;2.60;;
37907;SDS011;23740;51.550;6.846;2022-08-21T09:52:10;9.18;;;2.60;;
37907;SDS011;23740;51.550;6.846;2022-08-21T09:54:41;10.02;;;2.40;;
37907;SDS011;23740;51.550;6.846;2022-08-21T09:59:53;6.78;;;2.38;;
37907;SDS011;23740;51.550;6.846;2022-08-21T10:02:30;7.78;;;2.28;;
37907;SDS011;23740;51.550;6.846;2022-08-21T10:05:01;5.22;;;1.70;;
37907;SDS011;23740;51.550;6.846;2022-08-21T10:07:39;4.50;;;1.90;;
37907;SDS011;23740;51.550;6.846;2022-08-21T10:10:07;6.00;;;1.75;;
37907;SDS011;23740;51.550;6.846;2022-08-21T10:15:24;7.00;;;2.38;;
37907;SDS011;23740;51.550;6.846;2022-08-21T10:18:14;5.10;;;1.98;;
37907;SDS011;23740;51.550;6.846;2022-08-21T10:21:02;5.75;;;2.30;;
37907;SDS011;23740;51.550;6.846;2022-08-21T10:33:53;7.93;;;2.03;;
37907;SDS011;23740;51.550;6.846;2022-08-21T10:36:43;7.28;;;2.50;;
37907;SDS011;23740;51.550;6.846;2022-08-21T10:39:26;5.47;;;2.20;;
37907;SDS011;23740;51.550;6.846;2022-08-21T10:47:24;6.17;;;1.90;;
37907;SDS011;23740;51.550;6.846;2022-08-21T10:50:11;3.35;;;1.80;;
37907;SDS011;23740;51.550;6.846;2022-08-21T10:55:40;5.70;;;2.28;;
37907;SDS011;23740;51.550;6.846;2022-08-21T10:58:12;7.43;;;3.05;;
37907;SDS011;23740;51.550;6.846;2022-08-21T11:03:51;5.50;;;2.15;;
37907;SDS011;23740;51.550;6.846;2022-08-21T11:08:55;8.65;;;1.88;;
37907;SDS011;23740;51.550;6.846;2022-08-21T11:11:41;5.20;;;1.98;;
37907;SDS011;23740;51.550;6.846;2022-08-21T11:16:48;4.72;;;2.03;;
37907;SDS011;23740;51.550;6.846;2022-08-21T11:19:24;6.07;;;1.85;;
37907;SDS011;23740;51.550;6.846;2022-08-21T11:22:06;5.80;;;1.95;;
37907;SDS011;23740;51.550;6.846;2022-08-21T11:34:54;2.22;;;1.35;;
37907;SDS011;23740;51.550;6.846;2022-08-21T11:40:29;3.25;;;1.38;;
37907;SDS011;23740;51.550;6.846;2022-08-21T11:50:42;5.93;;;2.30;;
37907;SDS011;23740;51.550;6.846;2022-08-21T11:55:52;7.80;;;2.10;;
37907;SDS011;23740;51.550;6.846;2022-08-21T11:58:31;3.63;;;1.63;;
37907;SDS011;23740;51.550;6.846;2022-08-21T12:01:07;3.95;;;1.25;;
37907;SDS011;23740;51.550;6.846;2022-08-21T12:03:35;3.42;;;1.45;;
37907;SDS011;23740;51.550;6.846;2022-08-21T12:06:06;3.83;;;1.50;;
37907;SDS011;23740;51.550;6.846;2022-08-21T12:08:40;3.30;;;1.55;;
37907;SDS011;23740;51.550;6.846;2022-08-21T12:13:34;4.85;;;1.90;;
37907;SDS011;23740;51.550;6.846;2022-08-21T12:16:05;3.67;;;1.30;;
37907;SDS011;23740;51.550;6.846;2022-08-21T12:18:41;3.22;;;1.23;;
37907;SDS011;23740;51.550;6.846;2022-08-21T12:21:20;2.38;;;1.02;;
37907;SDS011;23740;51.550;6.846;2022-08-21T12:23:47;3.58;;;1.40;;
37907;SDS011;23740;51.550;6.846;2022-08-21T12:26:20;2.60;;;1.45;;
37907;SDS011;23740;51.550;6.846;2022-08-21T12:28:49;4.78;;;1.50;;
37907;SDS011;23740;51.550;6.846;2022-08-21T12:31:19;5.57;;;1.80;;
37907;SDS011;23740;51.550;6.846;2022-08-21T12:33:57;3.80;;;1.30;;
37907;SDS011;23740;51.550;6.846;2022-08-21T12:36:26;2.72;;;1.55;;
37907;SDS011;23740;51.550;6.846;2022-08-21T12:39:15;5.40;;;1.50;;
37907;SDS011;23740;51.550;6.846;2022-08-21T12:44:22;3.67;;;1.35;;
37907;SDS011;23740;51.550;6.846;2022-08-21T12:47:06;4.45;;;1.48;;
37907;SDS011;23740;51.550;6.846;2022-08-21T12:49:51;4.63;;;1.70;;
37907;SDS011;23740;51.550;6.846;2022-08-21T12:52:28;3.30;;;1.45;;
37907;SDS011;23740;51.550;6.846;2022-08-21T12:54:55;7.25;;;2.00;;
37907;SDS011;23740;51.550;6.846;2022-08-21T12:57:22;4.22;;;1.50;;
37907;SDS011;23740;51.550;6.846;2022-08-21T12:59:59;4.88;;;1.67;;
37907;SDS011;23740;51.550;6.846;2022-08-21T13:02:28;4.18;;;1.58;;
37907;SDS011;23740;51.550;6.846;2022-08-21T13:04:56;2.95;;;1.30;;
37907;SDS011;23740;51.550;6.846;2022-08-21T13:07:25;4.18;;;1.40;;
37907;SDS011;23740;51.550;6.846;2022-08-21T13:09:53;4.43;;;2.13;;
37907;SDS011;23740;51.550;6.846;2022-08-21T13:12:40;4.07;;;1.50;;
37907;SDS011;23740;51.550;6.846;2022-08-21T13:15:07;3.17;;;1.38;;
37907;SDS011;23740;51.550;6.846;2022-08-21T13:17:35;3.53;;;1.30;;
37907;SDS011;23740;51.550;6.846;2022-08-21T13:20:03;3.33;;;1.40;;
37907;SDS011;23740;51.550;6.846;2022-08-21T13:22:40;2.95;;;1.85;;
37907;SDS011;23740;51.550;6.846;2022-08-21T13:25:12;5.03;;;1.63;;
37907;SDS011;23740;51.550;6.846;2022-08-21T13:27:39;2.72;;;1.40;;
37907;SDS011;23740;51.550;6.846;2022-08-21T13:30:12;6.30;;;1.70;;
37907;SDS011;23740;51.550;6.846;2022-08-21T13:32:43;3.47;;;1.30;;
37907;SDS011;23740;51.550;6.846;2022-08-21T13:37:41;4.28;;;1.20;;
37907;SDS011;23740;51.550;6.846;2022-08-21T13:40:09;3.92;;;1.55;;
37907;SDS011;23740;51.550;6.846;2022-08-21T13:42:39;5.78;;;1.83;;
37907;SDS011;23740;51.550;6.846;2022-08-21T13:47:36;6.88;;;1.98;;
37907;SDS011;23740;51.550;6.846;2022-08-21T13:50:02;3.80;;;1.50;;
37907;SDS011;23740;51.550;6.846;2022-08-21T13:52:28;3.50;;;2.05;;
37907;SDS011;23740;51.550;6.846;2022-08-21T13:55:06;4.03;;;1.30;;
37907;SDS011;23740;51.550;6.846;2022-08-21T13:57:37;2.55;;;1.42;;
37907;SDS011;23740;51.550;6.846;2022-08-21T14:00:13;4.60;;;2.10;;
37907;SDS011;23740;51.550;6.846;2022-08-21T14:02:40;6.13;;;3.53;;
37907;SDS011;23740;51.550;6.846;2022-08-21T14:05:08;5.60;;;4.05;;
37907;SDS011;23740;51.550;6.846;2022-08-21T14:07:40;3.92;;;1.75;;
37907;SDS011;23740;51.550;6.846;2022-08-21T14:10:12;2.45;;;1.27;;
37907;SDS011;23740;51.550;6.846;2022-08-21T14:12:50;4.38;;;2.60;;
37907;SDS011;23740;51.550;6.846;2022-08-21T14:15:18;3.78;;;1.58;;
37907;SDS011;23740;51.550;6.846;2022-08-21T14:17:46;5.28;;;1.40;;
37907;SDS011;23740;51.550;6.846;2022-08-21T14:20:23;3.85;;;1.52;;
37907;SDS011;23740;51.550;6.846;2022-08-21T14:22:56;2.67;;;1.48;;
37907;SDS011;23740;51.550;6.846;2022-08-21T14:30:40;16.80;;;12.18;;
37907;SDS011;23740;51.550;6.846;2022-08-21T14:33:11;5.80;;;2.85;;
37907;SDS011;23740;51.550;6.846;2022-08-21T14:35:39;6.20;;;2.33;;
37907;SDS011;23740;51.550;6.846;2022-08-21T14:38:15;5.57;;;2.50;;
37907;SDS011;23740;51.550;6.846;2022-08-21T14:40:42;4.83;;;1.50;;
37907;SDS011;23740;51.550;6.846;2022-08-21T14:43:09;3.58;;;1.58;;
37907;SDS011;23740;51.550;6.846;2022-08-21T14:45:34;3.38;;;1.40;;
37907;SDS011;23740;51.550;6.846;2022-08-21T14:48:01;4.82;;;1.52;;
37907;SDS011;23740;51.550;6.846;2022-08-21T14:50:27;5.78;;;1.65;;
37907;SDS011;23740;51.550;6.846;2022-08-21T14:52:53;5.07;;;1.60;;
37907;SDS011;23740;51.550;6.846;2022-08-21T14:55:19;3.45;;;1.17;;
37907;SDS011;23740;51.550;6.846;2022-08-21T14:57:45;4.57;;;1.38;;
37907;SDS011;23740;51.550;6.846;2022-08-21T15:00:13;5.28;;;1.77;;
37907;SDS011;23740;51.550;6.846;2022-08-21T15:02:41;1.90;;;1.13;;
37907;SDS011;23740;51.550;6.846;2022-08-21T15:05:08;3.95;;;2.25;;
37907;SDS011;23740;51.550;6.846;2022-08-21T15:07:33;3.50;;;1.98;;
37907;SDS011;23740;51.550;6.846;2022-08-21T15:09:59;4.90;;;1.60;;
37907;SDS011;23740;51.550;6.846;2022-08-21T15:12:24;4.30;;;1.63;;
37907;SDS011;23740;51.550;6.846;2022-08-21T15:14:50;14.98;;;1.67;;
37907;SDS011;23740;51.550;6.846;2022-08-21T15:17:17;6.47;;;1.70;;
37907;SDS011;23740;51.550;6.846;2022-08-21T15:19:43;3.70;;;1.40;;
37907;SDS011;23740;51.550;6.846;2022-08-21T15:22:08;2.45;;;1.30;;
37907;SDS011;23740;51.550;6.846;2022-08-21T15:24:34;5.72;;;1.52;;
37907;SDS011;23740;51.550;6.846;2022-08-21T15:27:00;4.85;;;1.55;;
37907;SDS011;23740;51.550;6.846;2022-08-21T15:29:27;3.85;;;1.80;;
37907;SDS011;23740;51.550;6.846;2022-08-21T15:31:58;3.92;;;1.40;;
37907;SDS011;23740;51.550;6.846;2022-08-21T15:34:26;4.25;;;1.50;;
37907;SDS011;23740;51.550;6.846;2022-08-21T15:36:54;6.45;;;1.60;;
37907;SDS011;23740;51.550;6.846;2022-08-21T15:41:45;5.68;;;1.67;;
37907;SDS011;23740;51.550;6.846;2022-08-21T15:44:11;2.67;;;1.48;;
37907;SDS011;23740;51.550;6.846;2022-08-21T15:46:38;3.88;;;1.88;;
37907;SDS011;23740;51.550;6.846;2022-08-21T15:49:04;4.28;;;1.58;;
37907;SDS011;23740;51.550;6.846;2022-08-21T15:51:29;4.60;;;1.42;;
37907;SDS011;23740;51.550;6.846;2022-08-21T15:53:55;4.47;;;1.85;;
37907;SDS011;23740;51.550;6.846;2022-08-21T15:56:21;3.00;;;1.42;;
37907;SDS011;23740;51.550;6.846;2022-08-21T15:58:49;5.32;;;1.70;;
37907;SDS011;23740;51.550;6.846;2022-08-21T16:01:16;2.55;;;1.23;;
37907;SDS011;23740;51.550;6.846;2022-08-21T16:03:42;4.80;;;1.50;;
37907;SDS011;23740;51.550;6.846;2022-08-21T16:06:11;14.57;;;8.73;;
37907;SDS011;23740;51.550;6.846;2022-08-21T16:08:37;3.30;;;1.50;;
37907;SDS011;23740;51.550;6.846;2022-08-21T16:11:02;4.13;;;1.90;;
37907;SDS011;23740;51.550;6.846;2022-08-21T16:13:29;4.47;;;1.60;;
37907;SDS011;23740;51.550;6.846;2022-08-21T16:15:59;7.32;;;5.30;;
37907;SDS011;23740;51.550;6.846;2022-08-21T16:18:25;5.75;;;2.92;;
37907;SDS011;23740;51.550;6.846;2022-08-21T16:20:51;3.72;;;1.60;;
37907;SDS011;23740;51.550;6.846;2022-08-21T16:23:16;3.97;;;1.80;;